Time;durP1;ratioP1;P1;durP2;ratioP2;P2;SDS_P1;SDS_P2;PMS_P1;PMS_P2;Temp;Humidity;BMP_temperature;BMP_pressure;BME280_temperature;BME280_humidity;BME280_pressure;Samples;Min_cycle;Max_cycle;Signal;HPM_P1;HPM_P2
2021/08/30 00:00:31;;;;;;;2.30;1.23;;;20.70;96.70;;;;;;4979363;28;20524;-87
2021/08/30 00:03:00;;;;;;;1.67;1.20;;;20.60;96.70;;;;;;4999798;28;20273;-87
2021/08/30 00:05:29;;;;;;;2.33;1.23;;;20.60;96.70;;;;;;4964950;28;20039;-87
2021/08/30 00:07:57;;;;;;;2.67;1.02;;;20.50;96.70;;;;;;4962738;28;20046;-87
2021/08/30 00:10:25;;;;;;;1.67;1.23;;;20.50;96.70;;;;;;4966111;28;20042;-86
2021/08/30 00:12:54;;;;;;;3.22;1.33;;;20.50;96.70;;;;;;4973362;28;20042;-86
2021/08/30 00:15:22;;;;;;;2.70;1.30;;;20.40;96.70;;;;;;4969903;28;20059;-87
2021/08/30 00:17:52;;;;;;;2.92;1.15;;;20.20;96.70;;;;;;4964557;28;20682;-87
2021/08/30 00:20:21;;;;;;;1.38;1.15;;;20.10;96.70;;;;;;4953768;28;20039;-87
2021/08/30 00:22:50;;;;;;;2.03;1.20;;;20.00;96.70;;;;;;4967610;28;20065;-86
2021/08/30 00:25:18;;;;;;;1.75;1.13;;;20.00;96.70;;;;;;4970761;28;20113;-86
2021/08/30 00:27:46;;;;;;;2.55;0.93;;;20.10;96.70;;;;;;4979935;28;20271;-87
2021/08/30 00:30:14;;;;;;;1.65;1.10;;;20.10;96.70;;;;;;4964500;28;20134;-86
2021/08/30 00:32:43;;;;;;;1.90;1.10;;;20.10;96.70;;;;;;4971054;28;20133;-86
2021/08/30 00:35:12;;;;;;;2.25;1.35;;;20.20;96.70;;;;;;4965119;28;20039;-87
2021/08/30 00:37:41;;;;;;;2.05;1.17;;;20.20;96.70;;;;;;4952511;28;20105;-87
2021/08/30 00:40:10;;;;;;;1.65;1.10;;;20.20;96.70;;;;;;4962596;28;20154;-86
2021/08/30 00:42:38;;;;;;;2.80;1.30;;;20.30;96.70;;;;;;4967820;28;20047;-86
2021/08/30 00:45:08;;;;;;;1.98;1.30;;;20.30;96.70;;;;;;4949836;28;20058;-86
2021/08/30 00:47:38;;;;;;;2.50;1.30;;;20.40;96.70;;;;;;4962960;28;20043;-86
2021/08/30 00:50:07;;;;;;;1.85;1.40;;;20.50;96.70;;;;;;4965260;28;20093;-87
2021/08/30 00:52:38;;;;;;;2.53;1.35;;;20.50;96.70;;;;;;4967649;28;20097;-87
2021/08/30 00:55:08;;;;;;;2.70;1.30;;;20.20;96.70;;;;;;4942279;28;20505;-88
2021/08/30 00:57:36;;;;;;;1.90;1.13;;;20.00;96.70;;;;;;4968715;28;20074;-87
2021/08/30 01:00:06;;;;;;;2.30;1.38;;;20.00;96.70;;;;;;4963625;28;20547;-87
2021/08/30 01:02:36;;;;;;;2.75;1.45;;;20.00;96.70;;;;;;4966225;28;20046;-87
2021/08/30 01:05:06;;;;;;;4.10;1.33;;;19.90;96.70;;;;;;4966743;28;20042;-86
2021/08/30 01:07:48;;;;;;;3.17;1.50;;;20.00;96.70;;;;;;4968325;28;20109;-86
2021/08/30 01:10:22;;;;;;;2.78;1.45;;;20.10;96.70;;;;;;5000397;28;20142;-85
2021/08/30 01:12:56;;;;;;;3.28;1.13;;;20.10;96.70;;;;;;4963844;28;20054;-86
2021/08/30 01:15:29;;;;;;;3.83;1.42;;;20.20;96.70;;;;;;4973117;28;20665;-86
2021/08/30 01:18:00;;;;;;;3.42;1.42;;;20.20;96.70;;;;;;4963918;28;20059;-85
2021/08/30 01:20:35;;;;;;;2.08;1.30;;;20.20;96.70;;;;;;4965868;28;20058;-86
2021/08/30 01:23:06;;;;;;;4.00;1.50;;;20.00;96.70;;;;;;4954707;28;20054;-87
2021/08/30 01:25:35;;;;;;;2.72;1.60;;;20.00;96.70;;;;;;4968504;28;20055;-86
2021/08/30 01:28:05;;;;;;;1.40;1.30;;;20.00;96.70;;;;;;4963059;28;20143;-87
2021/08/30 01:30:39;;;;;;;1.55;1.30;;;20.00;96.70;;;;;;4966430;28;20047;-87
2021/08/30 01:33:09;;;;;;;2.58;1.10;;;20.00;96.70;;;;;;4945072;28;20521;-87
2021/08/30 01:35:38;;;;;;;1.77;1.20;;;19.90;96.70;;;;;;4967548;28;20125;-87
2021/08/30 01:38:07;;;;;;;2.92;1.27;;;19.90;96.70;;;;;;4966039;28;20039;-87
2021/08/30 01:40:38;;;;;;;1.90;1.40;;;19.80;96.70;;;;;;4966989;28;20513;-86
2021/08/30 01:43:09;;;;;;;2.17;1.30;;;19.90;96.70;;;;;;4962473;28;20196;-87
2021/08/30 01:45:39;;;;;;;1.50;1.10;;;19.80;96.70;;;;;;4967241;28;20157;-86
2021/08/30 01:48:09;;;;;;;1.40;1.10;;;19.80;96.70;;;;;;4963452;28;20046;-87
2021/08/30 01:50:38;;;;;;;1.83;0.98;;;19.90;96.70;;;;;;4960167;28;20042;-87
2021/08/30 01:53:09;;;;;;;2.33;1.20;;;19.80;96.70;;;;;;4963126;28;20126;-87
2021/08/30 02:00:45;;;;;;;1.63;1.15;;;19.60;96.70;;;;;;4965134;28;20050;-86
2021/08/30 02:03:17;;;;;;;1.88;1.10;;;19.60;96.70;;;;;;4965809;28;20046;-86
2021/08/30 02:05:47;;;;;;;1.70;1.20;;;19.60;96.70;;;;;;4968271;28;20050;-87
2021/08/30 02:08:15;;;;;;;1.67;1.20;;;19.50;96.70;;;;;;4971304;28;20053;-86
2021/08/30 02:10:45;;;;;;;1.25;1.02;;;19.40;96.70;;;;;;4968317;28;20152;-85
2021/08/30 02:13:15;;;;;;;1.90;1.30;;;19.20;96.70;;;;;;4968557;28;20039;-87
2021/08/30 02:15:45;;;;;;;3.15;1.08;;;19.20;96.70;;;;;;4965201;28;20066;-86
2021/08/30 02:18:21;;;;;;;1.95;1.30;;;19.20;96.70;;;;;;4964245;28;20047;-86
2021/08/30 02:20:56;;;;;;;4.40;1.48;;;19.20;96.70;;;;;;4960015;28;20047;-88
2021/08/30 02:23:34;;;;;;;2.80;1.15;;;19.20;96.70;;;;;;4967252;28;20042;-87
2021/08/30 02:26:09;;;;;;;1.98;1.20;;;19.30;96.70;;;;;;4950272;28;20073;-86
2021/08/30 02:28:39;;;;;;;2.55;1.48;;;19.40;96.70;;;;;;4971857;28;20046;-85
2021/08/30 02:31:10;;;;;;;2.83;1.30;;;19.30;96.70;;;;;;4962043;28;20248;-86
2021/08/30 02:33:40;;;;;;;3.92;1.30;;;19.10;96.70;;;;;;4971683;28;20047;-85
2021/08/30 02:36:09;;;;;;;3.05;1.30;;;19.10;96.70;;;;;;4944511;28;20138;-86
2021/08/30 02:38:39;;;;;;;3.50;1.27;;;19.10;96.70;;;;;;4962332;28;20110;-85
2021/08/30 02:41:09;;;;;;;2.92;1.13;;;19.10;96.70;;;;;;4957802;28;20054;-85
2021/08/30 02:43:37;;;;;;;2.08;1.10;;;19.20;96.70;;;;;;4962603;28;20047;-85
2021/08/30 02:46:06;;;;;;;2.40;1.30;;;19.20;96.70;;;;;;4960960;28;20054;-86
2021/08/30 02:48:36;;;;;;;1.38;1.05;;;19.20;96.70;;;;;;4979323;28;20055;-84
2021/08/30 02:51:05;;;;;;;1.73;1.30;;;19.20;96.70;;;;;;4960626;28;20129;-86
2021/08/30 02:53:35;;;;;;;1.48;1.00;;;19.20;96.70;;;;;;4977915;28;20055;-86
2021/08/30 02:56:04;;;;;;;2.35;1.25;;;19.20;96.70;;;;;;4962226;28;20054;-86
2021/08/30 02:58:33;;;;;;;2.38;1.30;;;19.20;96.70;;;;;;4959716;28;20043;-85
2021/08/30 03:01:02;;;;;;;2.60;1.10;;;19.10;96.70;;;;;;4962526;28;20141;-85
2021/08/30 03:03:31;;;;;;;2.03;1.38;;;19.10;96.70;;;;;;4962251;28;20043;-86
2021/08/30 03:06:01;;;;;;;3.28;1.25;;;19.10;96.70;;;;;;4964697;28;20042;-86
2021/08/30 03:08:30;;;;;;;2.85;1.38;;;19.10;96.70;;;;;;4940534;28;20051;-86
2021/08/30 03:11:01;;;;;;;1.90;1.30;;;19.10;96.70;;;;;;5003591;28;20140;-85
2021/08/30 03:13:31;;;;;;;2.67;1.20;;;19.10;96.70;;;;;;4963056;28;20493;-85
2021/08/30 03:15:59;;;;;;;2.72;1.13;;;19.00;96.70;;;;;;4934004;28;20051;-86
2021/08/30 03:18:27;;;;;;;3.53;1.42;;;19.00;96.70;;;;;;4965387;28;20051;-85
2021/08/30 03:20:56;;;;;;;1.95;1.48;;;19.00;96.70;;;;;;4982222;28;20054;-85
2021/08/30 03:23:25;;;;;;;2.08;1.42;;;19.00;96.70;;;;;;4952431;28;20035;-85
2021/08/30 03:25:55;;;;;;;3.25;1.50;;;18.80;96.70;;;;;;4963180;28;20038;-85
2021/08/30 03:28:24;;;;;;;3.50;1.23;;;18.90;96.70;;;;;;4965750;28;20051;-85
2021/08/30 03:30:52;;;;;;;4.95;1.42;;;18.80;96.70;;;;;;4966002;28;20046;-86
2021/08/30 03:33:21;;;;;;;2.08;1.20;;;18.70;96.70;;;;;;4961788;28;20092;-85
2021/08/30 03:35:51;;;;;;;1.55;1.20;;;18.60;96.70;;;;;;4969290;28;20148;-86
2021/08/30 03:38:21;;;;;;;1.70;1.20;;;18.60;96.70;;;;;;4961366;28;20275;-86
2021/08/30 03:44:26;;;;;;;1.40;1.08;;;18.60;96.70;;;;;;4965402;28;20051;-85
2021/08/30 03:47:07;;;;;;;2.38;1.20;;;18.70;96.70;;;;;;4975196;28;20090;-86
2021/08/30 03:49:36;;;;;;;2.83;1.25;;;18.70;96.70;;;;;;4974958;28;20043;-86
2021/08/30 03:52:06;;;;;;;2.55;1.30;;;18.70;96.70;;;;;;4970165;28;20054;-85
2021/08/30 03:54:34;;;;;;;2.22;1.23;;;18.60;96.70;;;;;;4977728;28;20089;-86
2021/08/30 03:57:03;;;;;;;1.58;0.93;;;18.50;96.70;;;;;;4967346;28;20058;-86
2021/08/30 03:59:35;;;;;;;1.92;1.08;;;18.60;96.70;;;;;;4963760;28;20058;-86
2021/08/30 04:02:05;;;;;;;2.28;1.02;;;18.60;96.70;;;;;;4946394;28;20050;-86
2021/08/30 04:04:35;;;;;;;1.92;1.30;;;18.80;96.70;;;;;;4963613;28;20051;-85
2021/08/30 04:07:04;;;;;;;1.52;1.10;;;18.80;96.70;;;;;;4963367;28;20106;-86
2021/08/30 04:09:33;;;;;;;2.25;1.30;;;18.80;96.70;;;;;;4967774;28;20050;-86
2021/08/30 04:12:01;;;;;;;2.53;1.33;;;18.80;96.70;;;;;;4963205;28;20521;-86
2021/08/30 04:14:30;;;;;;;3.05;1.48;;;18.80;96.70;;;;;;4963777;28;20046;-85
2021/08/30 04:16:59;;;;;;;1.80;1.13;;;18.90;96.70;;;;;;4960794;28;20473;-86
2021/08/30 04:19:27;;;;;;;2.65;1.20;;;18.90;96.70;;;;;;4964473;28;20540;-85
2021/08/30 04:21:55;;;;;;;1.88;1.42;;;18.80;96.70;;;;;;4961928;28;20046;-85
2021/08/30 04:24:23;;;;;;;1.27;1.00;;;18.80;96.70;;;;;;4960766;28;20138;-86
2021/08/30 04:26:51;;;;;;;3.25;1.10;;;18.70;96.70;;;;;;4973226;28;20101;-85
2021/08/30 04:29:20;;;;;;;1.77;0.93;;;18.70;96.70;;;;;;4964916;28;20121;-86
2021/08/30 04:31:50;;;;;;;2.13;1.33;;;18.60;96.70;;;;;;4964410;28;20058;-87
2021/08/30 04:34:22;;;;;;;1.83;1.10;;;18.50;96.70;;;;;;4967704;28;20073;-87
2021/08/30 04:36:52;;;;;;;1.98;1.20;;;18.50;96.70;;;;;;4951143;28;20114;-87
2021/08/30 04:39:21;;;;;;;2.85;1.45;;;18.50;96.70;;;;;;4965444;28;20043;-87
2021/08/30 04:41:51;;;;;;;1.73;0.75;;;18.50;96.70;;;;;;4971477;28;20046;-88
2021/08/30 04:44:21;;;;;;;3.20;1.23;;;18.50;96.70;;;;;;4969872;28;20051;-89
2021/08/30 04:46:51;;;;;;;1.98;1.00;;;18.50;96.70;;;;;;4962877;28;20093;-88
2021/08/30 04:49:22;;;;;;;2.63;1.30;;;18.60;96.70;;;;;;4949657;28;20051;-89
2021/08/30 04:51:51;;;;;;;6.00;1.55;;;18.70;96.70;;;;;;4965468;28;20047;-89
2021/08/30 04:54:21;;;;;;;1.88;1.02;;;18.70;96.70;;;;;;4969891;28;20405;-86
2021/08/30 04:56:51;;;;;;;1.42;1.17;;;18.60;96.70;;;;;;4970783;28;20152;-86
2021/08/30 04:59:20;;;;;;;2.45;1.15;;;18.60;96.70;;;;;;4966419;28;20587;-86
2021/08/30 05:01:48;;;;;;;2.20;1.10;;;18.50;96.70;;;;;;4970444;28;20057;-86
2021/08/30 05:04:16;;;;;;;3.05;1.35;;;18.60;96.70;;;;;;4969193;28;20061;-86
2021/08/30 05:06:46;;;;;;;1.35;1.00;;;18.70;96.70;;;;;;4968425;28;20155;-86
2021/08/30 05:09:14;;;;;;;2.75;1.42;;;18.60;96.70;;;;;;4967985;28;20121;-86
2021/08/30 05:11:42;;;;;;;3.58;1.20;;;18.70;96.70;;;;;;4984733;28;20512;-87
2021/08/30 05:14:10;;;;;;;1.75;1.17;;;18.70;96.70;;;;;;4987795;28;20505;-86
2021/08/30 05:16:38;;;;;;;1.88;1.27;;;18.80;96.70;;;;;;4975339;28;20149;-86
2021/08/30 05:19:06;;;;;;;3.10;1.40;;;18.80;96.70;;;;;;4965511;28;20035;-87
2021/08/30 05:21:34;;;;;;;2.17;1.40;;;18.70;96.70;;;;;;4982787;28;20054;-87
2021/08/30 05:24:06;;;;;;;3.65;1.63;;;18.60;96.70;;;;;;4965792;28;20047;-85
2021/08/30 05:26:35;;;;;;;2.58;1.48;;;18.60;96.70;;;;;;4966460;28;20572;-87
2021/08/30 05:29:04;;;;;;;2.83;1.40;;;18.70;96.70;;;;;;4962452;28;20516;-86
2021/08/30 05:31:32;;;;;;;2.40;1.40;;;18.70;96.70;;;;;;4968082;28;20058;-86
2021/08/30 05:34:00;;;;;;;3.10;1.38;;;18.80;96.70;;;;;;4969414;28;20050;-87
2021/08/30 05:36:28;;;;;;;2.53;1.52;;;18.70;96.70;;;;;;4965456;28;20049;-86
2021/08/30 05:38:56;;;;;;;3.20;1.25;;;18.80;96.70;;;;;;4950616;28;20684;-86
2021/08/30 05:41:26;;;;;;;1.88;1.00;;;18.80;96.70;;;;;;4969393;28;20126;-87
2021/08/30 05:43:54;;;;;;;1.50;1.05;;;18.70;96.70;;;;;;4963379;28;20042;-87
2021/08/30 05:46:22;;;;;;;2.50;1.13;;;18.80;96.70;;;;;;4965139;28;20066;-86
2021/08/30 05:48:50;;;;;;;2.72;1.40;;;18.90;96.70;;;;;;4965978;28;20504;-86
2021/08/30 05:51:18;;;;;;;2.10;1.33;;;18.90;96.70;;;;;;4964603;28;20382;-86
2021/08/30 05:53:46;;;;;;;1.90;1.30;;;18.90;96.70;;;;;;4965684;28;20038;-87
2021/08/30 05:56:15;;;;;;;2.65;1.10;;;19.00;96.70;;;;;;4969743;28;20141;-87
2021/08/30 05:58:44;;;;;;;2.03;1.40;;;19.00;96.70;;;;;;4962615;28;20042;-87
2021/08/30 06:01:12;;;;;;;3.25;1.52;;;19.00;96.70;;;;;;4971317;28;20046;-86
2021/08/30 06:03:40;;;;;;;2.38;1.33;;;19.00;96.70;;;;;;4962612;28;20264;-86
2021/08/30 06:06:09;;;;;;;2.28;1.33;;;18.90;96.70;;;;;;4959048;28;20054;-87
2021/08/30 06:08:37;;;;;;;4.88;2.03;;;19.00;96.70;;;;;;4967231;28;20552;-87
2021/08/30 06:11:05;;;;;;;2.45;1.60;;;19.00;96.70;;;;;;4969379;28;20035;-86
2021/08/30 06:13:33;;;;;;;3.15;2.17;;;19.10;96.70;;;;;;4980064;28;20042;-86
2021/08/30 06:16:03;;;;;;;3.00;2.03;;;19.20;96.70;;;;;;4959572;28;20138;-87
2021/08/30 06:18:31;;;;;;;3.92;2.25;;;19.40;96.70;;;;;;4968209;28;20050;-87
2021/08/30 06:20:59;;;;;;;6.13;2.45;;;19.30;96.70;;;;;;4968198;28;20053;-87
2021/08/30 06:23:29;;;;;;;4.30;2.50;;;19.40;96.70;;;;;;4965518;28;20070;-87
2021/08/30 06:25:59;;;;;;;9.05;2.83;;;19.50;96.70;;;;;;4955211;28;20050;-85
2021/08/30 06:28:27;;;;;;;3.05;1.73;;;19.60;96.70;;;;;;4964522;28;20138;-87
2021/08/30 06:30:55;;;;;;;4.47;2.28;;;19.60;96.70;;;;;;4961536;28;20038;-85
2021/08/30 06:33:25;;;;;;;2.30;1.77;;;19.60;96.70;;;;;;4968977;28;20121;-86
2021/08/30 06:35:53;;;;;;;5.90;2.50;;;19.70;96.70;;;;;;4966557;28;20057;-87
2021/08/30 06:38:21;;;;;;;2.70;1.60;;;19.80;96.70;;;;;;5002500;28;20038;-86
2021/08/30 06:40:49;;;;;;;2.90;1.70;;;19.90;96.70;;;;;;4971324;28;20057;-88
2021/08/30 06:43:17;;;;;;;3.63;1.52;;;19.90;96.70;;;;;;4964298;28;20051;-88
2021/08/30 06:45:45;;;;;;;2.42;1.30;;;20.00;96.70;;;;;;4964841;28;20365;-88
2021/08/30 06:48:13;;;;;;;2.15;1.42;;;20.00;96.70;;;;;;4949698;28;20042;-88
2021/08/30 06:50:43;;;;;;;2.20;1.25;;;20.20;96.70;;;;;;4947584;28;20081;-88
2021/08/30 06:53:12;;;;;;;2.63;1.33;;;20.20;96.70;;;;;;4975277;28;20585;-88
2021/08/30 06:55:41;;;;;;;3.92;1.60;;;20.30;96.70;;;;;;4961571;28;20035;-88
2021/08/30 06:58:09;;;;;;;4.90;1.40;;;20.40;96.70;;;;;;4966011;28;20057;-87
2021/08/30 07:00:37;;;;;;;2.65;1.42;;;20.60;96.70;;;;;;4962376;28;20050;-88
2021/08/30 07:03:05;;;;;;;1.90;1.38;;;20.80;96.70;;;;;;4976692;28;20058;-89
2021/08/30 07:05:33;;;;;;;3.53;1.50;;;20.80;96.70;;;;;;4961454;28;20600;-88
2021/08/30 07:08:03;;;;;;;2.92;1.23;;;20.80;96.70;;;;;;4964820;28;20046;-88
2021/08/30 07:10:31;;;;;;;3.30;1.40;;;20.90;96.70;;;;;;4947383;28;20110;-88
2021/08/30 07:12:59;;;;;;;1.52;0.98;;;21.00;96.70;;;;;;4994542;28;20848;-88
2021/08/30 07:15:28;;;;;;;2.20;1.00;;;21.10;96.70;;;;;;4959328;28;20137;-88
2021/08/30 07:17:56;;;;;;;1.63;1.20;;;21.10;96.70;;;;;;4949813;28;20076;-87
2021/08/30 07:20:29;;;;;;;1.33;0.98;;;21.20;96.70;;;;;;4982948;28;20053;-87
2021/08/30 07:22:57;;;;;;;2.95;1.42;;;21.20;96.70;;;;;;4968355;28;20042;-88
2021/08/30 07:25:27;;;;;;;2.20;1.40;;;21.20;96.70;;;;;;4961611;28;20050;-88
2021/08/30 07:27:55;;;;;;;2.45;1.23;;;21.30;96.70;;;;;;4962991;28;20138;-88
2021/08/30 07:30:23;;;;;;;1.83;1.25;;;21.40;96.70;;;;;;4966141;28;20054;-87
2021/08/30 07:32:51;;;;;;;2.75;1.40;;;21.30;96.70;;;;;;4970429;28;20577;-87
2021/08/30 07:35:21;;;;;;;2.50;1.30;;;21.30;96.70;;;;;;4967625;28;20138;-84
2021/08/30 07:37:49;;;;;;;2.83;1.63;;;21.30;96.70;;;;;;4961288;28;20043;-86
2021/08/30 07:40:17;;;;;;;2.25;1.30;;;21.50;96.70;;;;;;4973647;28;20080;-86
2021/08/30 07:42:51;;;;;;;3.45;1.67;;;21.60;96.70;;;;;;4993789;28;20062;-88
2021/08/30 07:45:20;;;;;;;2.53;1.48;;;21.50;96.70;;;;;;4960603;28;20086;-86
2021/08/30 07:47:48;;;;;;;2.58;1.55;;;21.40;96.70;;;;;;4962114;28;20047;-88
2021/08/30 07:50:16;;;;;;;3.30;1.30;;;21.50;96.70;;;;;;4966175;28;20053;-87
2021/08/30 07:52:44;;;;;;;2.65;1.38;;;21.50;96.70;;;;;;4958977;28;20059;-88
2021/08/30 07:55:13;;;;;;;1.48;1.05;;;21.50;96.70;;;;;;4962284;28;20054;-87
2021/08/30 07:57:42;;;;;;;2.90;1.10;;;21.60;96.70;;;;;;4963328;28;20062;-91
2021/08/30 08:00:13;;;;;;;3.95;1.30;;;21.60;96.70;;;;;;4965111;28;20422;-87
2021/08/30 08:02:42;;;;;;;3.38;1.20;;;21.70;96.70;;;;;;4965144;28;20509;-86
2021/08/30 08:05:10;;;;;;;2.08;1.30;;;21.70;96.70;;;;;;4967906;28;20051;-84
2021/08/30 08:07:39;;;;;;;9.80;2.08;;;21.70;96.70;;;;;;4967399;28;20045;-85
2021/08/30 08:10:08;;;;;;;2.38;0.98;;;21.80;96.70;;;;;;4972513;28;20050;-83
2021/08/30 08:12:36;;;;;;;2.22;1.00;;;21.90;96.70;;;;;;4960545;28;20040;-83
2021/08/30 08:15:05;;;;;;;1.80;1.10;;;22.00;96.70;;;;;;4974758;28;20045;-84
2021/08/30 08:17:35;;;;;;;4.28;1.17;;;22.00;96.70;;;;;;4965411;28;20047;-82
2021/08/30 08:20:04;;;;;;;4.28;1.60;;;22.10;96.70;;;;;;4957439;28;20042;-85
2021/08/30 08:22:41;;;;;;;2.08;1.13;;;22.00;96.70;;;;;;4974245;28;20062;-84
2021/08/30 08:25:11;;;;;;;2.17;1.10;;;22.00;96.70;;;;;;4983145;28;20110;-84
2021/08/30 08:27:39;;;;;;;1.35;0.75;;;22.10;96.70;;;;;;4972847;28;20046;-83
2021/08/30 08:30:08;;;;;;;2.08;0.95;;;22.20;96.70;;;;;;4972404;28;20054;-84
2021/08/30 08:32:40;;;;;;;2.50;1.20;;;22.30;96.70;;;;;;4975595;28;20055;-84
2021/08/30 08:35:09;;;;;;;1.45;0.90;;;22.30;96.70;;;;;;4964327;28;20077;-84
2021/08/30 08:37:38;;;;;;;1.63;0.85;;;22.30;96.70;;;;;;4958570;28;20126;-85
2021/08/30 08:40:08;;;;;;;1.73;0.90;;;22.40;96.70;;;;;;4961088;28;20039;-84
2021/08/30 08:42:37;;;;;;;2.78;1.05;;;22.40;96.70;;;;;;4963515;28;20521;-82
2021/08/30 08:45:07;;;;;;;1.90;1.30;;;22.60;96.70;;;;;;4962054;28;20057;-84
2021/08/30 08:47:38;;;;;;;2.47;1.00;;;22.80;96.70;;;;;;4966384;28;20046;-85
2021/08/30 08:50:09;;;;;;;1.70;1.15;;;22.90;96.70;;;;;;4948401;28;20047;-86
2021/08/30 08:52:40;;;;;;;3.88;1.40;;;23.00;96.70;;;;;;4964170;28;20046;-82
2021/08/30 08:55:09;;;;;;;1.55;1.00;;;23.20;96.70;;;;;;4983313;28;21371;-83
2021/08/30 08:57:37;;;;;;;1.45;0.80;;;23.30;96.70;;;;;;4962715;28;20493;-83
2021/08/30 09:00:07;;;;;;;2.63;1.33;;;23.40;96.70;;;;;;4943069;28;20206;-85
2021/08/30 09:02:36;;;;;;;5.72;1.00;;;23.50;96.70;;;;;;4975622;28;20572;-85
2021/08/30 09:05:08;;;;;;;2.17;1.05;;;23.40;96.70;;;;;;4959758;28;20074;-83
2021/08/30 09:07:41;;;;;;;1.15;0.95;;;23.40;96.70;;;;;;4975085;28;20390;-84
2021/08/30 09:10:18;;;;;;;1.67;0.90;;;23.60;96.70;;;;;;4964839;28;20102;-84
2021/08/30 09:12:48;;;;;;;2.85;0.95;;;23.70;96.70;;;;;;4965774;28;20497;-85
2021/08/30 09:15:23;;;;;;;3.50;0.80;;;23.90;96.70;;;;;;4964395;28;20047;-84
2021/08/30 09:17:53;;;;;;;2.60;1.10;;;24.00;96.70;;;;;;4968837;28;20047;-85
2021/08/30 09:20:25;;;;;;;3.75;1.00;;;24.10;96.70;;;;;;4947444;28;20047;-84
2021/08/30 09:22:53;;;;;;;1.85;1.08;;;24.30;96.70;;;;;;4976999;28;20070;-84
2021/08/30 09:25:22;;;;;;;3.88;1.75;;;24.30;96.70;;;;;;5002210;28;20090;-84
2021/08/30 09:27:51;;;;;;;3.55;1.20;;;24.20;96.70;;;;;;4971782;28;20039;-85
2021/08/30 09:30:25;;;;;;;2.50;1.10;;;24.30;96.70;;;;;;4966541;28;20058;-84
2021/08/30 09:32:54;;;;;;;2.83;1.02;;;24.40;96.70;;;;;;4980380;28;20046;-84
2021/08/30 09:35:25;;;;;;;1.75;1.23;;;24.50;96.70;;;;;;4963954;28;20038;-84
2021/08/30 09:37:53;;;;;;;1.40;1.02;;;24.40;96.70;;;;;;4979384;28;20055;-84
2021/08/30 09:40:27;;;;;;;2.67;1.15;;;24.20;96.70;;;;;;4963517;28;20046;-84
2021/08/30 09:42:57;;;;;;;3.60;1.30;;;24.20;96.70;;;;;;4961493;28;20038;-87
2021/08/30 09:45:27;;;;;;;2.38;1.17;;;24.10;96.70;;;;;;4963041;28;20161;-83
2021/08/30 09:47:57;;;;;;;3.42;1.20;;;24.20;96.70;;;;;;4966799;28;20046;-83
2021/08/30 09:50:31;;;;;;;3.25;1.20;;;24.30;96.70;;;;;;4981663;28;20050;-82
2021/08/30 09:53:00;;;;;;;3.00;1.40;;;24.50;96.70;;;;;;4960085;28;20505;-82
2021/08/30 09:55:30;;;;;;;2.28;1.10;;;24.50;96.70;;;;;;4966478;28;20047;-83
2021/08/30 09:57:59;;;;;;;2.40;1.20;;;24.70;96.70;;;;;;4958780;28;20066;-84
2021/08/30 10:00:29;;;;;;;2.10;1.05;;;24.90;96.70;;;;;;4964306;28;20642;-83
2021/08/30 10:02:59;;;;;;;3.13;1.42;;;25.10;96.70;;;;;;4956194;28;20431;-85
2021/08/30 10:05:30;;;;;;;2.15;1.17;;;24.80;96.70;;;;;;4966736;28;20066;-86
2021/08/30 10:08:00;;;;;;;5.13;1.40;;;24.80;96.70;;;;;;4975831;28;20049;-82
2021/08/30 10:10:29;;;;;;;2.15;1.00;;;24.90;96.70;;;;;;4964285;28;20074;-82
2021/08/30 10:12:58;;;;;;;3.45;1.15;;;25.20;96.70;;;;;;4960464;28;20666;-82
2021/08/30 10:15:28;;;;;;;1.55;1.00;;;25.30;96.70;;;;;;4957132;28;20043;-86
2021/08/30 10:17:57;;;;;;;2.08;1.35;;;25.40;96.60;;;;;;4946860;28;20098;-85
2021/08/30 10:20:28;;;;;;;2.00;1.17;;;25.50;96.70;;;;;;4962019;28;20042;-85
2021/08/30 10:23:02;;;;;;;2.72;1.13;;;25.60;96.10;;;;;;4963490;28;20420;-87
2021/08/30 10:25:31;;;;;;;2.03;1.10;;;25.80;95.10;;;;;;4966099;28;20050;-86
2021/08/30 10:28:02;;;;;;;1.60;1.05;;;26.00;93.40;;;;;;4966518;28;20038;-86
2021/08/30 10:30:37;;;;;;;1.67;0.85;;;26.10;92.50;;;;;;4963691;28;20047;-88
2021/08/30 10:33:07;;;;;;;1.00;0.70;;;26.00;91.00;;;;;;4964627;28;20133;-88
2021/08/30 10:35:39;;;;;;;1.52;1.02;;;26.00;91.10;;;;;;4964406;28;20058;-87
2021/08/30 10:38:15;;;;;;;1.38;0.90;;;26.10;90.20;;;;;;4965180;28;20086;-88
2021/08/30 10:40:48;;;;;;;;;;;26.30;89.80;;;;;;4965644;28;20132;-89
2021/08/30 10:43:18;;;;;;;1.05;0.70;;;26.60;89.70;;;;;;4966598;28;19988;-88
2021/08/30 10:45:56;;;;;;;1.73;0.75;;;26.90;87.80;;;;;;4965154;28;20069;-89
2021/08/30 10:48:32;;;;;;;1.20;0.80;;;27.00;87.50;;;;;;4966880;28;20062;-89
2021/08/30 10:51:10;;;;;;;6.35;1.00;;;26.90;87.50;;;;;;4961859;28;20054;-89
2021/08/30 10:53:40;;;;;;;3.28;0.93;;;26.70;87.70;;;;;;4951259;28;20054;-88
2021/08/30 10:56:09;;;;;;;1.33;0.80;;;26.60;88.10;;;;;;4966371;28;20517;-89
2021/08/30 10:58:49;;;;;;;2.90;0.88;;;26.50;88.70;;;;;;4949014;28;20517;-88
2021/08/30 11:01:17;;;;;;;1.55;0.90;;;26.50;88.70;;;;;;5004226;28;20042;-89
2021/08/30 11:03:54;;;;;;;1.50;0.77;;;26.60;89.30;;;;;;4965174;28;20113;-89
2021/08/30 11:06:22;;;;;;;;;;;26.50;89.80;;;;;;4952216;28;20106;-89
2021/08/30 11:08:51;;;;;;;1.92;0.80;;;26.50;90.10;;;;;;4963698;28;19926;-89
2021/08/30 11:11:22;;;;;;;1.60;0.80;;;26.60;89.90;;;;;;4947861;28;20046;-89
2021/08/30 11:13:59;;;;;;;1.20;1.10;;;26.80;90.00;;;;;;4986113;28;20047;-89
2021/08/30 11:16:28;;;;;;;1.30;0.95;;;26.90;89.90;;;;;;4971989;28;20050;-89
2021/08/30 11:18:59;;;;;;;2.10;1.10;;;26.90;90.00;;;;;;4974154;28;20047;-88
2021/08/30 11:21:32;;;;;;;1.20;0.90;;;27.00;89.60;;;;;;4965026;28;20524;-89
2021/08/30 11:24:03;;;;;;;2.95;1.08;;;26.90;90.00;;;;;;4962519;28;20308;-89
2021/08/30 11:26:34;;;;;;;1.70;0.80;;;27.10;89.40;;;;;;4963241;28;20050;-89
2021/08/30 11:29:06;;;;;;;1.42;0.82;;;26.90;89.10;;;;;;4949857;28;20138;-89
2021/08/30 11:31:39;;;;;;;1.92;0.90;;;26.90;88.40;;;;;;5000847;28;20054;-88
2021/08/30 11:34:09;;;;;;;2.28;1.02;;;26.80;87.90;;;;;;4962892;28;20069;-89
2021/08/30 11:36:45;;;;;;;1.48;0.95;;;26.90;88.90;;;;;;4965236;28;20050;-89
2021/08/30 11:39:15;;;;;;;2.78;1.10;;;27.20;88.20;;;;;;4968732;28;20078;-87
2021/08/30 11:41:45;;;;;;;3.20;1.10;;;27.40;87.40;;;;;;4968986;28;20147;-88
2021/08/30 11:44:13;;;;;;;2.45;1.00;;;27.10;88.40;;;;;;4968891;28;20054;-90
2021/08/30 11:46:43;;;;;;;1.52;1.00;;;27.20;88.90;;;;;;4967454;28;20244;-89
2021/08/30 11:49:12;;;;;;;1.33;0.80;;;27.50;87.70;;;;;;4973073;28;20146;-89
2021/08/30 11:51:42;;;;;;;1.70;0.90;;;27.70;87.50;;;;;;4976118;28;20042;-87
2021/08/30 11:54:18;;;;;;;3.83;1.05;;;27.80;87.30;;;;;;4969737;28;20039;-89
2021/08/30 11:56:54;;;;;;;1.42;0.98;;;28.10;87.60;;;;;;4974632;28;21687;-90
2021/08/30 11:59:31;;;;;;;2.65;1.00;;;28.30;86.70;;;;;;4968600;28;20051;-90
2021/08/30 12:02:01;;;;;;;2.30;1.05;;;28.30;86.10;;;;;;4977999;28;20075;-89
2021/08/30 12:04:31;;;;;;;2.72;0.88;;;28.60;85.60;;;;;;4970449;28;20077;-88
2021/08/30 12:07:01;;;;;;;1.55;1.08;;;28.50;86.20;;;;;;4967032;28;20437;-89
2021/08/30 12:09:46;;;;;;;2.10;1.00;;;28.30;85.70;;;;;;4974150;28;20524;-89
2021/08/30 12:12:18;;;;;;;1.75;0.90;;;28.40;86.00;;;;;;4969141;28;20596;-90
2021/08/30 12:14:58;;;;;;;2.08;1.15;;;28.70;85.20;;;;;;4972263;28;20122;-89
2021/08/30 12:17:27;;;;;;;3.00;1.15;;;28.70;83.70;;;;;;4951561;28;20078;-90
2021/08/30 12:19:57;;;;;;;1.65;0.90;;;28.80;84.00;;;;;;4969647;28;20046;-88
2021/08/30 12:22:28;;;;;;;1.85;1.00;;;29.00;84.00;;;;;;4965012;28;20082;-89
2021/08/30 12:25:08;;;;;;;1.58;0.75;;;29.10;84.50;;;;;;4983583;28;20081;-90
2021/08/30 12:27:39;;;;;;;5.95;1.00;;;29.20;84.10;;;;;;4967142;28;20480;-89
2021/08/30 12:30:13;;;;;;;1.40;0.90;;;29.30;84.10;;;;;;4967512;28;20051;-89
2021/08/30 12:32:50;;;;;;;2.33;0.93;;;29.10;84.00;;;;;;4973894;28;20596;-90
2021/08/30 12:35:20;;;;;;;2.50;1.30;;;28.90;83.90;;;;;;4968003;28;20039;-90
2021/08/30 12:37:49;;;;;;;2.42;0.70;;;28.90;84.20;;;;;;4951678;28;20166;-87
2021/08/30 12:40:21;;;;;;;2.05;0.80;;;29.20;82.40;;;;;;4965714;28;20081;-89
2021/08/30 12:42:50;;;;;;;2.70;0.82;;;29.00;82.20;;;;;;4965562;28;20043;-89
2021/08/30 12:45:18;;;;;;;3.15;1.10;;;29.00;83.50;;;;;;4967463;28;20061;-88
2021/08/30 12:47:47;;;;;;;1.52;0.80;;;29.00;85.00;;;;;;4967427;28;20053;-85
2021/08/30 12:50:16;;;;;;;1.58;0.95;;;29.10;84.70;;;;;;4960881;28;20031;-87
2021/08/30 12:52:45;;;;;;;3.38;1.05;;;28.90;84.60;;;;;;4956938;28;20046;-90
2021/08/30 12:55:15;;;;;;;1.45;0.93;;;28.90;86.10;;;;;;4964008;28;20180;-91
2021/08/30 12:57:44;;;;;;;1.10;0.82;;;29.00;86.40;;;;;;4965770;28;20070;-87
2021/08/30 13:00:15;;;;;;;1.25;0.82;;;29.10;86.10;;;;;;4978899;28;20055;-87
2021/08/30 13:02:45;;;;;;;0.90;0.80;;;29.20;84.60;;;;;;4958902;28;20061;-88
2021/08/30 13:05:16;;;;;;;1.88;0.70;;;29.20;84.80;;;;;;4963121;28;20051;-88
2021/08/30 13:07:45;;;;;;;1.77;0.60;;;29.40;84.50;;;;;;4963033;28;20047;-85
2021/08/30 13:10:15;;;;;;;2.78;0.73;;;29.40;83.80;;;;;;4947365;28;20051;-84